createdAt,value
2023-11-26T00:00:14.519Z,2.67
2023-11-26T00:02:42.079Z,2.78
2023-11-26T00:05:09.408Z,2.90
2023-11-26T00:07:36.434Z,3.38
2023-11-26T00:10:03.758Z,4.50
2023-11-26T00:12:30.842Z,5.07
2023-11-26T00:14:57.826Z,2.15
2023-11-26T00:17:25.743Z,5.50
2023-11-26T00:19:52.935Z,3.92
2023-11-26T00:22:19.868Z,2.95
2023-11-26T00:24:47.152Z,2.97
2023-11-26T00:27:14.119Z,6.63
2023-11-26T00:29:44.241Z,5.93
2023-11-26T00:32:11.766Z,4.38
2023-11-26T00:34:39.068Z,4.88
2023-11-26T00:37:06.069Z,3.72
2023-11-26T00:39:34.091Z,4.25
2023-11-26T00:42:01.192Z,6.45
2023-11-26T00:44:28.468Z,3.88
2023-11-26T00:46:55.689Z,3.05
2023-11-26T00:49:23.308Z,5.85
2023-11-26T00:51:50.285Z,3.42
2023-11-26T00:54:17.926Z,4.93
2023-11-26T00:56:44.876Z,4.25
2023-11-26T00:59:11.943Z,4.72
2023-11-26T01:01:38.954Z,4.70
2023-11-26T01:04:08.786Z,7.32
2023-11-26T01:06:36.884Z,4.72
2023-11-26T01:09:23.701Z,5.60
2023-11-26T01:11:53.538Z,5.65
2023-11-26T01:14:20.945Z,4.75
2023-11-26T01:16:50.720Z,4.20
2023-11-26T01:19:18.139Z,5.18
2023-11-26T01:21:45.983Z,6.43
2023-11-26T01:24:12.984Z,9.43
2023-11-26T01:26:41.192Z,7.18
2023-11-26T01:29:08.748Z,6.20
2023-11-26T01:31:35.927Z,4.28
2023-11-26T01:34:04.934Z,5.60
2023-11-26T01:37:03.498Z,6.22
2023-11-26T01:39:30.810Z,3.55
2023-11-26T01:41:58.622Z,5.22
2023-11-26T01:44:27.656Z,6.97
2023-11-26T01:46:56.362Z,4.72
2023-11-26T01:49:26.552Z,6.13
2023-11-26T01:51:54.004Z,5.45
2023-11-26T01:54:21.730Z,5.43
2023-11-26T01:56:49.106Z,8.40
2023-11-26T01:59:16.292Z,7.70
2023-11-26T02:01:46.379Z,5.55
2023-11-26T02:04:14.092Z,9.73
2023-11-26T02:06:41.049Z,7.93
2023-11-26T02:09:09.036Z,4.45
2023-11-26T02:11:35.876Z,5.13
2023-11-26T02:14:02.721Z,6.93
2023-11-26T02:16:29.767Z,7.75
2023-11-26T02:18:56.568Z,6.13
2023-11-26T02:21:23.349Z,8.80
2023-11-26T02:23:51.037Z,4.85
2023-11-26T02:26:18.154Z,6.18
2023-11-26T02:28:45.317Z,5.80
2023-11-26T02:31:12.080Z,7.88
2023-11-26T02:33:54.063Z,4.57
2023-11-26T02:36:23.406Z,6.53
2023-11-26T02:38:50.176Z,8.27
2023-11-26T02:41:16.918Z,5.57
2023-11-26T02:43:44.030Z,5.93
2023-11-26T02:46:11.164Z,8.10
2023-11-26T02:48:38.181Z,7.25
2023-11-26T02:51:04.960Z,6.40
2023-11-26T02:53:31.754Z,8.23
2023-11-26T02:55:58.679Z,9.07
2023-11-26T02:58:25.629Z,13.85
2023-11-26T03:00:52.847Z,16.48
2023-11-26T03:03:20.962Z,9.23
2023-11-26T03:05:51.846Z,8.98
2023-11-26T03:08:33.735Z,10.77
2023-11-26T03:11:19.336Z,17.00
2023-11-26T03:13:46.301Z,12.15
2023-11-26T03:16:13.790Z,13.32
2023-11-26T03:18:40.711Z,10.60
2023-11-26T03:21:08.580Z,10.65
2023-11-26T03:23:35.376Z,9.65
2023-11-26T03:26:02.228Z,11.50
2023-11-26T03:28:29.145Z,11.18
2023-11-26T03:30:58.172Z,9.48
2023-11-26T03:33:28.240Z,8.90
2023-11-26T03:35:55.484Z,8.07
2023-11-26T03:38:22.316Z,7.55
2023-11-26T03:40:49.339Z,7.57
2023-11-26T03:43:16.644Z,8.15
2023-11-26T03:45:43.794Z,8.82
2023-11-26T03:48:10.846Z,7.93
2023-11-26T03:50:37.721Z,6.63
2023-11-26T03:53:04.642Z,5.80
2023-11-26T03:55:31.892Z,6.18
2023-11-26T03:57:58.674Z,5.93
2023-11-26T04:00:25.595Z,6.93
2023-11-26T04:02:52.530Z,8.77
2023-11-26T04:05:19.609Z,8.52
2023-11-26T04:07:46.485Z,7.88
2023-11-26T04:10:19.595Z,8.23
2023-11-26T04:12:51.222Z,9.35
2023-11-26T04:15:24.457Z,10.57
2023-11-26T04:17:51.778Z,8.13
2023-11-26T04:20:18.645Z,7.30
2023-11-26T04:22:45.917Z,11.88
2023-11-26T04:25:13.403Z,9.00
2023-11-26T04:27:40.261Z,8.57
2023-11-26T04:30:09.177Z,8.73
2023-11-26T04:32:36.112Z,9.18
2023-11-26T04:35:03.104Z,7.78
2023-11-26T04:37:30.794Z,7.70
2023-11-26T04:39:59.303Z,9.43
2023-11-26T04:42:28.922Z,12.75
2023-11-26T04:44:56.274Z,12.13
2023-11-26T04:47:25.459Z,8.18
2023-11-26T04:49:57.780Z,9.80
2023-11-26T04:52:25.180Z,10.52
2023-11-26T04:54:55.264Z,8.50
2023-11-26T04:57:25.318Z,7.38
2023-11-26T04:59:56.184Z,9.52
2023-11-26T05:02:26.336Z,7.68
2023-11-26T05:04:54.160Z,12.27
2023-11-26T05:07:24.334Z,6.60
2023-11-26T05:09:54.046Z,9.27
2023-11-26T05:12:25.130Z,10.55
2023-11-26T05:14:55.628Z,11.40
2023-11-26T05:17:25.461Z,17.58
2023-11-26T05:19:52.904Z,17.08
2023-11-26T05:22:22.214Z,9.68
2023-11-26T05:24:49.514Z,8.23
2023-11-26T05:27:17.077Z,12.30
2023-11-26T05:29:44.811Z,12.48
2023-11-26T05:32:13.496Z,13.00
2023-11-26T05:34:41.207Z,10.98
2023-11-26T05:37:08.621Z,10.23
2023-11-26T05:39:36.701Z,11.85
2023-11-26T05:42:04.681Z,8.05
2023-11-26T05:44:32.770Z,11.15
2023-11-26T05:47:02.417Z,11.13
2023-11-26T05:49:30.344Z,12.60
2023-11-26T05:51:59.500Z,11.48
2023-11-26T05:54:28.223Z,10.43
2023-11-26T05:56:55.593Z,12.88
2023-11-26T05:59:22.870Z,14.90
2023-11-26T06:01:50.445Z,12.63
2023-11-26T06:04:18.410Z,10.63
2023-11-26T06:06:48.207Z,14.00
2023-11-26T06:09:18.365Z,21.23
2023-11-26T06:11:46.972Z,10.20
2023-11-26T06:14:14.784Z,12.68
2023-11-26T06:16:45.111Z,14.90
2023-11-26T06:19:13.138Z,11.57
2023-11-26T06:21:40.184Z,15.05
2023-11-26T06:24:09.463Z,10.73
2023-11-26T06:26:42.033Z,12.30
2023-11-26T06:29:12.759Z,11.95
2023-11-26T06:31:41.105Z,15.98
2023-11-26T06:34:10.964Z,12.98
2023-11-26T06:36:38.955Z,12.98
2023-11-26T06:39:12.271Z,12.93
2023-11-26T06:41:43.303Z,13.50
2023-11-26T06:44:12.333Z,11.18
2023-11-26T06:46:40.542Z,10.45
2023-11-26T06:49:08.970Z,15.98
2023-11-26T06:51:36.626Z,14.60
2023-11-26T06:54:07.358Z,16.17
2023-11-26T06:56:34.281Z,16.80
2023-11-26T06:59:03.913Z,14.75
2023-11-26T07:01:33.782Z,18.48
2023-11-26T07:04:04.829Z,14.50
2023-11-26T07:06:37.277Z,11.90
2023-11-26T07:09:10.664Z,15.95
2023-11-26T07:11:37.904Z,12.82
2023-11-26T07:14:05.644Z,12.32
2023-11-26T07:16:34.818Z,17.58
2023-11-26T07:19:02.494Z,16.80
2023-11-26T07:21:31.145Z,20.83
2023-11-26T07:23:58.349Z,17.25
2023-11-26T07:26:27.759Z,19.25
2023-11-26T07:28:55.542Z,17.67
2023-11-26T07:31:24.931Z,17.40
2023-11-26T07:33:52.796Z,17.70
2023-11-26T07:36:25.109Z,13.40
2023-11-26T07:38:55.286Z,13.32
2023-11-26T07:41:23.738Z,20.10
2023-11-26T07:43:54.933Z,30.95
2023-11-26T07:46:23.449Z,23.17
2023-11-26T07:48:52.118Z,17.10
2023-11-26T07:51:19.520Z,18.60
2023-11-26T07:53:47.098Z,24.27
2023-11-26T07:56:14.408Z,18.75
2023-11-26T07:58:46.989Z,21.90
2023-11-26T08:01:14.427Z,23.00
2023-11-26T08:03:43.341Z,22.75
2023-11-26T08:06:14.898Z,19.75
2023-11-26T08:08:46.105Z,19.73
2023-11-26T08:11:15.430Z,20.27
2023-11-26T08:13:46.751Z,18.90
2023-11-26T08:16:17.310Z,20.50
2023-11-26T08:18:45.057Z,16.27
2023-11-26T08:21:13.677Z,17.63
2023-11-26T08:23:52.279Z,13.57
2023-11-26T08:26:22.894Z,17.73
2023-11-26T08:28:50.087Z,11.20
2023-11-26T08:31:18.667Z,9.60
2023-11-26T08:33:50.303Z,12.20
2023-11-26T08:36:20.940Z,11.77
2023-11-26T08:38:50.041Z,13.38
2023-11-26T08:41:22.862Z,13.13
2023-11-26T08:43:52.858Z,11.03
2023-11-26T08:46:23.647Z,12.48
2023-11-26T08:48:54.629Z,12.15
2023-11-26T08:51:23.559Z,13.38
2023-11-26T08:53:50.958Z,14.65
2023-11-26T08:56:20.081Z,12.75
2023-11-26T08:58:48.091Z,12.70
2023-11-26T09:01:15.631Z,10.35
2023-11-26T09:03:42.986Z,10.40
2023-11-26T09:06:10.808Z,13.43
2023-11-26T09:08:43.101Z,11.05
2023-11-26T09:11:16.048Z,14.45
2023-11-26T09:13:46.944Z,16.40
2023-11-26T09:16:14.437Z,15.98
2023-11-26T09:18:48.209Z,19.38
2023-11-26T09:21:19.877Z,15.20
2023-11-26T09:23:57.744Z,17.98
2023-11-26T09:26:28.655Z,14.70
2023-11-26T09:28:58.676Z,14.52
2023-11-26T09:31:25.929Z,19.02
2023-11-26T09:33:53.360Z,16.48
2023-11-26T09:36:20.989Z,16.05
2023-11-26T09:38:51.846Z,15.82
2023-11-26T09:41:20.935Z,20.08
2023-11-26T09:43:48.787Z,20.27
2023-11-26T09:46:17.612Z,14.57
2023-11-26T09:48:48.346Z,11.57
2023-11-26T09:51:17.911Z,13.50
2023-11-26T09:53:48.477Z,15.88
2023-11-26T09:56:17.593Z,12.93
2023-11-26T09:58:45.021Z,15.45
2023-11-26T10:01:13.284Z,13.77
2023-11-26T10:04:06.364Z,18.05
2023-11-26T10:06:35.456Z,15.15
2023-11-26T10:09:19.256Z,13.93
2023-11-26T10:11:50.483Z,16.80
2023-11-26T10:14:19.711Z,15.38
2023-11-26T10:16:48.313Z,20.73
2023-11-26T10:19:27.387Z,18.50
2023-11-26T10:22:01.921Z,21.15
2023-11-26T10:24:30.631Z,20.52
2023-11-26T10:26:59.755Z,20.40
2023-11-26T10:29:31.809Z,15.75
2023-11-26T10:32:08.738Z,16.85
2023-11-26T10:34:37.457Z,16.63
2023-11-26T10:37:20.995Z,20.33
2023-11-26T10:39:52.902Z,19.50
2023-11-26T10:42:23.214Z,21.40
2023-11-26T10:44:54.425Z,17.50
2023-11-26T10:47:22.954Z,21.10
2023-11-26T10:49:54.539Z,21.42
2023-11-26T10:52:41.533Z,20.60
2023-11-26T10:55:11.838Z,16.13
2023-11-26T10:57:41.107Z,15.43
2023-11-26T11:00:14.749Z,17.73
2023-11-26T11:02:46.263Z,15.80
2023-11-26T11:05:17.187Z,17.00
2023-11-26T11:07:44.920Z,19.92
2023-11-26T11:13:25.233Z,16.83
2023-11-26T11:15:52.690Z,16.70
2023-11-26T11:18:49.386Z,20.88
2023-11-26T11:21:18.528Z,16.27
2023-11-26T11:23:47.914Z,16.42
2023-11-26T11:26:16.861Z,17.80
2023-11-26T11:28:49.453Z,20.15
2023-11-26T11:31:43.502Z,18.33
2023-11-26T11:34:20.445Z,22.90
2023-11-26T11:36:54.367Z,23.58
2023-11-26T11:42:31.658Z,21.50
2023-11-26T11:45:27.760Z,24.77
2023-11-26T11:47:55.698Z,30.85
2023-11-26T11:50:31.228Z,29.23
2023-11-26T11:53:05.263Z,21.38
2023-11-26T11:55:35.274Z,17.88
2023-11-26T11:58:12.412Z,20.02
2023-11-26T12:00:40.261Z,19.13
2023-11-26T12:03:07.578Z,16.58
2023-11-26T12:05:34.613Z,14.93
2023-11-26T12:08:02.113Z,15.27
2023-11-26T12:10:32.444Z,17.60
2023-11-26T12:13:08.111Z,17.98
2023-11-26T12:15:36.547Z,15.02
2023-11-26T12:18:04.049Z,16.48
2023-11-26T12:20:34.815Z,15.60
2023-11-26T12:23:02.005Z,15.10
2023-11-26T12:25:29.321Z,14.75
2023-11-26T12:28:07.383Z,19.05
2023-11-26T12:30:37.685Z,18.88
2023-11-26T12:33:05.635Z,16.77
2023-11-26T12:35:38.324Z,18.55
2023-11-26T12:38:08.125Z,18.65
2023-11-26T12:40:37.553Z,17.75
2023-11-26T12:43:05.272Z,18.95
2023-11-26T12:45:32.898Z,18.65
2023-11-26T12:47:59.972Z,16.30
2023-11-26T12:50:44.908Z,16.67
2023-11-26T12:53:16.542Z,19.17
2023-11-26T12:55:47.570Z,15.50
2023-11-26T12:58:20.010Z,15.15
2023-11-26T13:00:47.879Z,18.27
2023-11-26T13:03:18.377Z,17.30
2023-11-26T13:05:48.297Z,19.60
2023-11-26T13:08:23.416Z,19.00
2023-11-26T13:11:00.121Z,19.42
2023-11-26T13:13:34.401Z,19.45
2023-11-26T13:16:06.744Z,18.73
2023-11-26T13:18:37.194Z,22.10
2023-11-26T13:21:08.357Z,21.52
2023-11-26T13:23:42.762Z,18.75
2023-11-26T13:26:11.742Z,20.33
2023-11-26T13:28:41.866Z,18.73
2023-11-26T13:31:15.373Z,17.80
2023-11-26T13:33:46.022Z,20.45
2023-11-26T13:36:15.381Z,17.50
2023-11-26T13:38:42.807Z,18.38
2023-11-26T13:41:10.169Z,17.88
2023-11-26T13:43:39.082Z,20.13
2023-11-26T13:46:09.157Z,18.95
2023-11-26T13:48:38.566Z,21.42
2023-11-26T13:51:08.925Z,24.75
2023-11-26T13:53:36.181Z,20.55
2023-11-26T13:56:03.628Z,18.92
2023-11-26T13:58:34.274Z,19.13
2023-11-26T14:01:01.408Z,22.70
2023-11-26T14:03:31.430Z,24.50
2023-11-26T14:06:00.669Z,22.10
2023-11-26T14:08:27.712Z,22.60
2023-11-26T14:10:55.531Z,21.83
2023-11-26T14:13:22.804Z,23.48
2023-11-26T14:15:52.842Z,22.58
2023-11-26T14:18:26.405Z,25.27
2023-11-26T14:20:54.907Z,24.75
2023-11-26T14:23:28.198Z,25.45
2023-11-26T14:25:55.526Z,26.30
2023-11-26T14:28:22.932Z,29.45
2023-11-26T14:30:51.232Z,30.55
2023-11-26T14:33:19.112Z,26.08
2023-11-26T14:35:49.211Z,21.48
2023-11-26T14:38:21.109Z,24.52
2023-11-26T14:40:48.268Z,23.92
2023-11-26T14:43:15.494Z,23.02
2023-11-26T14:45:48.659Z,23.27
2023-11-26T14:48:16.201Z,25.73
2023-11-26T14:50:45.679Z,27.10
2023-11-26T14:53:14.595Z,22.88
2023-11-26T14:55:41.822Z,24.75
2023-11-26T14:58:09.471Z,24.23
2023-11-26T15:00:41.193Z,22.23
2023-11-26T15:03:09.600Z,22.65
2023-11-26T15:05:37.240Z,19.60
2023-11-26T15:08:08.977Z,21.92
2023-11-26T15:10:35.936Z,22.15
2023-11-26T15:13:03.191Z,20.05
2023-11-26T15:15:30.061Z,22.52
2023-11-26T15:17:57.335Z,20.50
2023-11-26T15:20:27.487Z,35.25
2023-11-26T15:22:59.963Z,57.15
2023-11-26T15:25:27.914Z,57.25
2023-11-26T15:27:55.498Z,38.83
2023-11-26T15:30:22.510Z,42.85
2023-11-26T15:32:50.040Z,44.17
2023-11-26T15:35:18.333Z,124.05
2023-11-26T15:37:45.904Z,76.10
2023-11-26T15:40:17.484Z,61.47
2023-11-26T15:42:45.252Z,56.75
2023-11-26T15:45:14.842Z,54.88
2023-11-26T15:47:42.537Z,42.33
2023-11-26T15:50:10.404Z,36.20
2023-11-26T15:52:37.751Z,28.98
2023-11-26T15:55:07.227Z,26.42
2023-11-26T15:57:34.392Z,23.17
2023-11-26T16:00:01.498Z,27.27
2023-11-26T16:02:28.554Z,26.38
2023-11-26T16:04:59.834Z,25.85
2023-11-26T16:07:27.843Z,28.65
2023-11-26T16:09:55.311Z,28.73
2023-11-26T16:12:22.508Z,32.83
2023-11-26T16:14:49.708Z,43.28
2023-11-26T16:17:26.850Z,33.33
2023-11-26T16:19:59.438Z,32.00
2023-11-26T16:22:26.671Z,38.17
2023-11-26T16:24:53.783Z,35.53
2023-11-26T16:27:20.598Z,32.03
2023-11-26T16:29:47.573Z,25.90
2023-11-26T16:32:14.482Z,26.13
2023-11-26T16:34:41.583Z,27.40
2023-11-26T16:37:10.226Z,32.33
2023-11-26T16:39:37.455Z,27.30
2023-11-26T16:42:07.839Z,24.27
2023-11-26T16:44:42.452Z,18.58
2023-11-26T16:47:09.539Z,25.40
2023-11-26T16:49:36.443Z,22.70
2023-11-26T16:52:04.365Z,22.52
2023-11-26T16:54:32.133Z,21.98
2023-11-26T16:56:59.088Z,24.55
2023-11-26T16:59:26.954Z,24.00
2023-11-26T17:01:54.550Z,29.02
2023-11-26T17:04:22.678Z,25.00
2023-11-26T17:06:49.686Z,20.52
2023-11-26T17:09:17.635Z,31.13
2023-11-26T17:11:44.897Z,35.28
2023-11-26T17:14:11.811Z,32.50
2023-11-26T17:16:40.052Z,31.90
2023-11-26T17:19:07.588Z,31.75
2023-11-26T17:21:39.152Z,24.40
2023-11-26T17:24:06.506Z,24.83
2023-11-26T17:26:33.626Z,23.42
2023-11-26T17:29:00.837Z,30.77
2023-11-26T17:31:29.386Z,24.08
2023-11-26T17:33:57.122Z,25.00
2023-11-26T17:36:24.536Z,24.63
2023-11-26T17:38:51.490Z,24.27
2023-11-26T17:41:18.668Z,21.60
2023-11-26T17:43:45.666Z,22.10
2023-11-26T17:46:12.911Z,19.88
2023-11-26T17:48:40.409Z,19.67
2023-11-26T17:51:07.870Z,22.30
2023-11-26T17:53:36.034Z,21.77
2023-11-26T17:56:06.112Z,22.17
2023-11-26T17:58:33.346Z,25.63
2023-11-26T18:01:00.533Z,17.63
2023-11-26T18:03:27.657Z,17.90
2023-11-26T18:05:54.757Z,21.58
2023-11-26T18:08:22.822Z,23.00
2023-11-26T18:10:50.422Z,21.30
2023-11-26T18:13:17.447Z,17.35
2023-11-26T18:15:44.987Z,19.75
2023-11-26T18:18:12.235Z,16.95
2023-11-26T18:20:39.358Z,17.92
2023-11-26T18:23:06.976Z,20.60
2023-11-26T18:25:35.404Z,21.77
2023-11-26T18:28:02.457Z,23.55
2023-11-26T18:30:29.744Z,23.60
2023-11-26T18:32:57.003Z,20.98
2023-11-26T18:35:26.543Z,23.73
2023-11-26T18:37:55.865Z,28.58
2023-11-26T18:40:22.802Z,27.98
2023-11-26T18:42:51.051Z,22.63
2023-11-26T18:45:19.194Z,30.55
2023-11-26T18:47:47.089Z,28.38
2023-11-26T18:50:14.245Z,29.05
2023-11-26T18:52:41.231Z,33.30
2023-11-26T18:55:08.668Z,31.63
2023-11-26T18:57:35.739Z,36.28
2023-11-26T19:00:03.948Z,30.15
2023-11-26T19:02:31.068Z,29.10
2023-11-26T19:04:58.218Z,40.22
2023-11-26T19:07:25.442Z,47.30
2023-11-26T19:09:52.413Z,38.05
2023-11-26T19:12:19.233Z,40.70
2023-11-26T19:14:47.724Z,36.92
2023-11-26T19:17:14.796Z,33.45
2023-11-26T19:19:42.464Z,33.67
2023-11-26T19:22:09.818Z,33.33
2023-11-26T19:24:37.778Z,27.13
2023-11-26T19:27:05.065Z,24.92
2023-11-26T19:29:31.972Z,25.45
2023-11-26T19:31:59.456Z,28.13
2023-11-26T19:34:26.417Z,27.77
2023-11-26T19:36:53.311Z,23.92
2023-11-26T19:39:20.892Z,26.27
2023-11-26T19:41:47.874Z,22.92
2023-11-26T19:44:15.617Z,25.30
2023-11-26T19:46:43.032Z,28.08
2023-11-26T19:49:10.445Z,25.83
2023-11-26T19:51:37.900Z,25.95
2023-11-26T19:54:05.725Z,25.65
2023-11-26T19:56:39.020Z,26.60
2023-11-26T20:01:35.036Z,29.75
2023-11-26T20:04:02.252Z,25.52
2023-11-26T20:06:29.344Z,29.30
2023-11-26T20:08:56.692Z,32.80
2023-11-26T20:11:24.619Z,31.83
2023-11-26T20:13:52.512Z,32.90
2023-11-26T20:16:25.934Z,29.98
2023-11-26T20:18:55.416Z,22.58
2023-11-26T20:21:23.129Z,23.45
2023-11-26T20:23:51.608Z,25.67
2023-11-26T20:26:21.795Z,23.98
2023-11-26T20:28:48.961Z,19.63
2023-11-26T20:31:16.055Z,18.52
2023-11-26T20:33:43.253Z,18.63
2023-11-26T20:36:19.260Z,15.95
2023-11-26T20:38:46.588Z,18.35
2023-11-26T20:41:13.942Z,12.85
2023-11-26T20:43:41.167Z,14.68
2023-11-26T20:46:08.240Z,13.52
2023-11-26T20:48:35.602Z,13.55
2023-11-26T20:51:02.706Z,15.90
2023-11-26T20:53:29.759Z,20.65
2023-11-26T20:55:56.637Z,23.25
2023-11-26T20:58:26.532Z,22.20
2023-11-26T21:00:55.264Z,20.48
2023-11-26T21:03:22.882Z,17.50
2023-11-26T21:05:52.406Z,16.33
2023-11-26T21:08:19.342Z,15.48
2023-11-26T21:10:46.293Z,12.00
2023-11-26T21:13:13.795Z,11.55
2023-11-26T21:15:40.720Z,10.68
2023-11-26T21:18:08.129Z,9.35
2023-11-26T21:20:35.031Z,14.02
2023-11-26T21:23:01.930Z,11.40
2023-11-26T21:25:28.926Z,10.85
2023-11-26T21:27:56.674Z,10.70
2023-11-26T21:30:23.900Z,10.45
2023-11-26T21:32:51.117Z,9.98
2023-11-26T21:35:18.692Z,8.23
2023-11-26T21:37:45.562Z,13.55
2023-11-26T21:40:13.825Z,13.25
2023-11-26T21:42:41.078Z,11.77
2023-11-26T21:45:08.574Z,13.68
2023-11-26T21:47:36.312Z,13.52
2023-11-26T21:50:03.603Z,9.93
2023-11-26T21:52:30.808Z,8.20
2023-11-26T21:54:58.392Z,6.68
2023-11-26T21:57:25.914Z,6.53
2023-11-26T21:59:52.842Z,6.35
2023-11-26T22:02:19.810Z,8.40
2023-11-26T22:04:47.901Z,4.90
2023-11-26T22:07:15.254Z,6.38
2023-11-26T22:09:43.188Z,7.75
2023-11-26T22:12:10.121Z,5.45
2023-11-26T22:14:37.865Z,5.35
2023-11-26T22:17:05.493Z,5.53
2023-11-26T22:19:32.578Z,6.90
2023-11-26T22:22:01.864Z,5.38
2023-11-26T22:24:29.204Z,6.00
2023-11-26T22:26:56.087Z,4.93
2023-11-26T22:29:23.711Z,6.22
2023-11-26T22:31:51.133Z,5.38
2023-11-26T22:34:20.520Z,4.50
2023-11-26T22:36:48.235Z,5.90
2023-11-26T22:39:17.959Z,4.88
2023-11-26T22:41:44.786Z,3.80
2023-11-26T22:44:11.850Z,7.68
2023-11-26T22:46:40.309Z,6.18
2023-11-26T22:49:07.494Z,5.15
2023-11-26T22:51:35.042Z,5.80
2023-11-26T22:54:02.640Z,3.85
2023-11-26T22:56:29.656Z,4.75
2023-11-26T22:58:56.731Z,5.05
2023-11-26T23:01:24.376Z,3.70
2023-11-26T23:03:53.052Z,4.13
2023-11-26T23:06:20.130Z,3.53
2023-11-26T23:08:47.337Z,8.98
2023-11-26T23:11:17.768Z,11.52
2023-11-26T23:13:45.231Z,8.45
2023-11-26T23:16:12.834Z,8.68
2023-11-26T23:18:40.484Z,4.80
2023-11-26T23:21:09.643Z,4.65
2023-11-26T23:23:42.643Z,3.42
2023-11-26T23:26:17.378Z,3.25
2023-11-26T23:28:44.368Z,3.42
2023-11-26T23:31:18.599Z,3.05
2023-11-26T23:33:47.632Z,5.03
2023-11-26T23:36:15.588Z,4.45
2023-11-26T23:38:44.581Z,4.03
2023-11-26T23:41:12.617Z,3.85
2023-11-26T23:43:41.127Z,4.00
2023-11-26T23:46:08.472Z,3.72
2023-11-26T23:48:35.660Z,3.22
2023-11-26T23:51:03.015Z,3.53
2023-11-26T23:53:30.579Z,6.68
2023-11-26T23:55:57.443Z,4.95
2023-11-26T23:58:24.353Z,5.32
